sensor_id;sensor_type;location;lat;lon;timestamp;temperature;humidity
78731;SHT31;68055;51.978;5.658;2023-05-02T00:01:46;15.8;58.2
78731;SHT31;68055;51.978;5.658;2023-05-02T00:04:16;15.8;58.4
78731;SHT31;68055;51.978;5.658;2023-05-02T00:06:45;15.8;58.9
78731;SHT31;68055;51.978;5.658;2023-05-02T00:09:15;15.7;58.9
78731;SHT31;68055;51.978;5.658;2023-05-02T00:11:45;15.7;58.3
78731;SHT31;68055;51.978;5.658;2023-05-02T00:14:15;15.7;58.4
78731;SHT31;68055;51.978;5.658;2023-05-02T00:16:44;15.7;58.6
78731;SHT31;68055;51.978;5.658;2023-05-02T00:19:14;15.7;58.6
78731;SHT31;68055;51.978;5.658;2023-05-02T00:21:46;15.7;58.3
78731;SHT31;68055;51.978;5.658;2023-05-02T00:24:16;15.7;59.1
78731;SHT31;68055;51.978;5.658;2023-05-02T00:26:46;15.6;58.9
78731;SHT31;68055;51.978;5.658;2023-05-02T00:29:16;15.6;58.9
78731;SHT31;68055;51.978;5.658;2023-05-02T00:31:45;15.6;58.6
78731;SHT31;68055;51.978;5.658;2023-05-02T00:34:15;15.6;59.1
78731;SHT31;68055;51.978;5.658;2023-05-02T00:36:44;15.6;58.9
78731;SHT31;68055;51.978;5.658;2023-05-02T00:39:14;15.6;58.7
78731;SHT31;68055;51.978;5.658;2023-05-02T00:41:44;15.6;59.4
78731;SHT31;68055;51.978;5.658;2023-05-02T00:44:13;15.6;59.5
78731;SHT31;68055;51.978;5.658;2023-05-02T00:46:43;15.5;59.6
78731;SHT31;68055;51.978;5.658;2023-05-02T00:49:13;15.5;59.4
78731;SHT31;68055;51.978;5.658;2023-05-02T00:51:43;15.5;59.3
78731;SHT31;68055;51.978;5.658;2023-05-02T00:54:13;15.5;59.5
78731;SHT31;68055;51.978;5.658;2023-05-02T00:56:45;15.5;59.7
78731;SHT31;68055;51.978;5.658;2023-05-02T00:59:16;15.5;59.7
78731;SHT31;68055;51.978;5.658;2023-05-02T01:01:54;15.5;59.8
78731;SHT31;68055;51.978;5.658;2023-05-02T01:04:38;15.5;59.6
78731;SHT31;68055;51.978;5.658;2023-05-02T01:07:21;15.5;59.8
78731;SHT31;68055;51.978;5.658;2023-05-02T01:10:03;15.5;59.4
78731;SHT31;68055;51.978;5.658;2023-05-02T01:12:41;15.5;60.1
78731;SHT31;68055;51.978;5.658;2023-05-02T01:15:15;15.5;59.9
78731;SHT31;68055;51.978;5.658;2023-05-02T01:17:47;15.6;59.6
78731;SHT31;68055;51.978;5.658;2023-05-02T01:20:20;15.6;59.9
78731;SHT31;68055;51.978;5.658;2023-05-02T01:22:50;15.6;59.5
78731;SHT31;68055;51.978;5.658;2023-05-02T01:25:27;15.6;59.2
78731;SHT31;68055;51.978;5.658;2023-05-02T01:28:08;15.6;59.7
78731;SHT31;68055;51.978;5.658;2023-05-02T01:30:41;15.6;59.8
78731;SHT31;68055;51.978;5.658;2023-05-02T01:33:14;15.6;59.3
78731;SHT31;68055;51.978;5.658;2023-05-02T01:35:49;15.5;59.3
78731;SHT31;68055;51.978;5.658;2023-05-02T01:38:23;15.5;60.1
78731;SHT31;68055;51.978;5.658;2023-05-02T01:40:59;15.5;60.2
78731;SHT31;68055;51.978;5.658;2023-05-02T01:43:34;15.5;60.7
78731;SHT31;68055;51.978;5.658;2023-05-02T01:46:09;15.4;61.0
78731;SHT31;68055;51.978;5.658;2023-05-02T01:48:40;15.4;61.0
78731;SHT31;68055;51.978;5.658;2023-05-02T01:51:15;15.4;61.0
78731;SHT31;68055;51.978;5.658;2023-05-02T01:53:47;15.4;61.6
78731;SHT31;68055;51.978;5.658;2023-05-02T01:56:18;15.4;61.6
78731;SHT31;68055;51.978;5.658;2023-05-02T01:58:49;15.3;61.3
78731;SHT31;68055;51.978;5.658;2023-05-02T02:01:22;15.3;61.5
78731;SHT31;68055;51.978;5.658;2023-05-02T02:03:56;15.3;62.0
78731;SHT31;68055;51.978;5.658;2023-05-02T02:06:26;15.3;61.9
78731;SHT31;68055;51.978;5.658;2023-05-02T02:08:56;15.2;61.8
78731;SHT31;68055;51.978;5.658;2023-05-02T02:11:35;15.2;61.6
78731;SHT31;68055;51.978;5.658;2023-05-02T02:14:13;15.2;61.6
78731;SHT31;68055;51.978;5.658;2023-05-02T02:16:45;15.1;61.5
78731;SHT31;68055;51.978;5.658;2023-05-02T02:19:17;15.1;60.9
78731;SHT31;68055;51.978;5.658;2023-05-02T02:21:49;15.1;60.8
78731;SHT31;68055;51.978;5.658;2023-05-02T02:24:21;15.1;60.8
78731;SHT31;68055;51.978;5.658;2023-05-02T02:26:52;15.1;60.5
78731;SHT31;68055;51.978;5.658;2023-05-02T02:29:22;15.0;59.9
78731;SHT31;68055;51.978;5.658;2023-05-02T02:31:52;15.0;59.7
78731;SHT31;68055;51.978;5.658;2023-05-02T02:34:24;14.9;59.1
78731;SHT31;68055;51.978;5.658;2023-05-02T02:36:58;14.9;59.1
78731;SHT31;68055;51.978;5.658;2023-05-02T02:39:43;14.8;59.6
78731;SHT31;68055;51.978;5.658;2023-05-02T02:42:24;14.8;59.5
78731;SHT31;68055;51.978;5.658;2023-05-02T02:45:07;14.7;59.5
78731;SHT31;68055;51.978;5.658;2023-05-02T02:47:43;14.7;59.3
78731;SHT31;68055;51.978;5.658;2023-05-02T02:50:22;14.7;59.5
78731;SHT31;68055;51.978;5.658;2023-05-02T02:52:58;14.6;59.3
78731;SHT31;68055;51.978;5.658;2023-05-02T02:55:39;14.6;59.0
78731;SHT31;68055;51.978;5.658;2023-05-02T02:58:24;14.6;58.6
78731;SHT31;68055;51.978;5.658;2023-05-02T03:00:56;14.6;58.6
78731;SHT31;68055;51.978;5.658;2023-05-02T03:03:27;14.5;58.1
78731;SHT31;68055;51.978;5.658;2023-05-02T03:05:58;14.5;58.3
78731;SHT31;68055;51.978;5.658;2023-05-02T03:08:42;14.5;58.3
78731;SHT31;68055;51.978;5.658;2023-05-02T03:11:14;14.4;58.3
78731;SHT31;68055;51.978;5.658;2023-05-02T03:13:43;14.4;58.4
78731;SHT31;68055;51.978;5.658;2023-05-02T03:16:33;14.4;58.5
78731;SHT31;68055;51.978;5.658;2023-05-02T03:19:04;14.4;58.3
78731;SHT31;68055;51.978;5.658;2023-05-02T03:21:34;14.4;57.9
78731;SHT31;68055;51.978;5.658;2023-05-02T03:24:04;14.3;57.5
78731;SHT31;68055;51.978;5.658;2023-05-02T03:26:36;14.3;57.5
78731;SHT31;68055;51.978;5.658;2023-05-02T03:29:05;14.3;57.6
78731;SHT31;68055;51.978;5.658;2023-05-02T03:31:37;14.3;57.6
78731;SHT31;68055;51.978;5.658;2023-05-02T03:34:07;14.3;57.5
78731;SHT31;68055;51.978;5.658;2023-05-02T03:36:36;14.3;57.1
78731;SHT31;68055;51.978;5.658;2023-05-02T03:39:06;14.3;56.7
78731;SHT31;68055;51.978;5.658;2023-05-02T03:41:35;14.2;56.8
78731;SHT31;68055;51.978;5.658;2023-05-02T03:44:05;14.2;56.8
78731;SHT31;68055;51.978;5.658;2023-05-02T03:46:35;14.2;56.7
78731;SHT31;68055;51.978;5.658;2023-05-02T03:49:05;14.2;56.8
78731;SHT31;68055;51.978;5.658;2023-05-02T03:51:34;14.1;57.1
78731;SHT31;68055;51.978;5.658;2023-05-02T03:54:04;14.1;56.8
78731;SHT31;68055;51.978;5.658;2023-05-02T03:56:34;14.1;56.7
78731;SHT31;68055;51.978;5.658;2023-05-02T03:59:05;14.1;56.7
78731;SHT31;68055;51.978;5.658;2023-05-02T04:01:35;14.1;56.6
78731;SHT31;68055;51.978;5.658;2023-05-02T04:04:05;14.1;56.5
78731;SHT31;68055;51.978;5.658;2023-05-02T04:06:36;14.1;56.3
78731;SHT31;68055;51.978;5.658;2023-05-02T04:09:06;14.1;56.5
78731;SHT31;68055;51.978;5.658;2023-05-02T04:11:36;14.1;56.3
78731;SHT31;68055;51.978;5.658;2023-05-02T04:14:05;14.1;56.3
78731;SHT31;68055;51.978;5.658;2023-05-02T04:16:35;14.1;56.4
78731;SHT31;68055;51.978;5.658;2023-05-02T04:19:05;14.1;56.1
78731;SHT31;68055;51.978;5.658;2023-05-02T04:21:37;14.1;56.2
78731;SHT31;68055;51.978;5.658;2023-05-02T04:24:08;14.1;56.1
78731;SHT31;68055;51.978;5.658;2023-05-02T04:26:38;14.1;56.2
78731;SHT31;68055;51.978;5.658;2023-05-02T04:29:08;14.1;56.4
78731;SHT31;68055;51.978;5.658;2023-05-02T04:31:38;14.1;56.4
78731;SHT31;68055;51.978;5.658;2023-05-02T04:34:08;14.1;56.0
78731;SHT31;68055;51.978;5.658;2023-05-02T04:36:37;14.1;56.1
78731;SHT31;68055;51.978;5.658;2023-05-02T04:39:07;14.1;56.4
78731;SHT31;68055;51.978;5.658;2023-05-02T04:41:37;14.1;56.3
78731;SHT31;68055;51.978;5.658;2023-05-02T04:44:07;14.1;56.1
78731;SHT31;68055;51.978;5.658;2023-05-02T04:46:37;14.1;56.3
78731;SHT31;68055;51.978;5.658;2023-05-02T04:49:06;14.1;56.2
78731;SHT31;68055;51.978;5.658;2023-05-02T04:51:36;14.1;56.0
78731;SHT31;68055;51.978;5.658;2023-05-02T04:54:06;14.1;55.8
78731;SHT31;68055;51.978;5.658;2023-05-02T04:56:35;14.1;55.9
78731;SHT31;68055;51.978;5.658;2023-05-02T04:59:05;14.1;55.6
78731;SHT31;68055;51.978;5.658;2023-05-02T05:01:34;14.1;55.6
78731;SHT31;68055;51.978;5.658;2023-05-02T05:04:04;14.1;55.7
78731;SHT31;68055;51.978;5.658;2023-05-02T05:06:34;14.1;55.6
78731;SHT31;68055;51.978;5.658;2023-05-02T05:09:04;14.1;55.8
78731;SHT31;68055;51.978;5.658;2023-05-02T05:11:33;14.1;55.7
78731;SHT31;68055;51.978;5.658;2023-05-02T05:14:04;14.1;54.8
78731;SHT31;68055;51.978;5.658;2023-05-02T05:16:34;14.1;54.5
78731;SHT31;68055;51.978;5.658;2023-05-02T05:19:05;14.1;54.5
78731;SHT31;68055;51.978;5.658;2023-05-02T05:21:35;14.1;54.4
78731;SHT31;68055;51.978;5.658;2023-05-02T05:24:05;14.1;54.2
78731;SHT31;68055;51.978;5.658;2023-05-02T05:26:35;14.1;53.8
78731;SHT31;68055;51.978;5.658;2023-05-02T05:29:05;14.1;52.4
78731;SHT31;68055;51.978;5.658;2023-05-02T05:31:35;14.0;52.2
78731;SHT31;68055;51.978;5.658;2023-05-02T05:34:07;14.0;52.0
78731;SHT31;68055;51.978;5.658;2023-05-02T05:36:38;13.9;51.1
78731;SHT31;68055;51.978;5.658;2023-05-02T05:39:08;13.9;51.1
78731;SHT31;68055;51.978;5.658;2023-05-02T05:41:38;13.9;50.6
78731;SHT31;68055;51.978;5.658;2023-05-02T05:44:09;13.8;50.9
78731;SHT31;68055;51.978;5.658;2023-05-02T05:46:39;13.8;50.0
78731;SHT31;68055;51.978;5.658;2023-05-02T05:49:08;13.8;50.5
78731;SHT31;68055;51.978;5.658;2023-05-02T05:51:40;13.8;50.2
78731;SHT31;68055;51.978;5.658;2023-05-02T05:54:10;13.8;50.6
78731;SHT31;68055;51.978;5.658;2023-05-02T05:56:39;13.8;50.5
78731;SHT31;68055;51.978;5.658;2023-05-02T05:59:09;13.7;50.4
78731;SHT31;68055;51.978;5.658;2023-05-02T06:01:39;13.7;50.5
78731;SHT31;68055;51.978;5.658;2023-05-02T06:04:09;13.7;50.8
78731;SHT31;68055;51.978;5.658;2023-05-02T06:06:39;13.7;50.9
78731;SHT31;68055;51.978;5.658;2023-05-02T06:09:08;13.7;51.4
78731;SHT31;68055;51.978;5.658;2023-05-02T06:11:38;13.7;51.4
78731;SHT31;68055;51.978;5.658;2023-05-02T06:14:08;13.6;51.7
78731;SHT31;68055;51.978;5.658;2023-05-02T06:16:37;13.6;52.0
78731;SHT31;68055;51.978;5.658;2023-05-02T06:19:07;13.6;52.0
78731;SHT31;68055;51.978;5.658;2023-05-02T06:21:37;13.6;52.2
78731;SHT31;68055;51.978;5.658;2023-05-02T06:24:09;13.6;52.0
78731;SHT31;68055;51.978;5.658;2023-05-02T06:26:40;13.6;52.0
78731;SHT31;68055;51.978;5.658;2023-05-02T06:29:10;13.6;51.7
78731;SHT31;68055;51.978;5.658;2023-05-02T06:31:40;13.6;51.8
78731;SHT31;68055;51.978;5.658;2023-05-02T06:34:11;13.6;51.8
78731;SHT31;68055;51.978;5.658;2023-05-02T06:36:40;13.6;51.9
78731;SHT31;68055;51.978;5.658;2023-05-02T06:39:10;13.6;51.6
78731;SHT31;68055;51.978;5.658;2023-05-02T06:41:40;13.6;51.7
78731;SHT31;68055;51.978;5.658;2023-05-02T06:44:09;13.6;51.1
78731;SHT31;68055;51.978;5.658;2023-05-02T06:46:39;13.6;51.0
78731;SHT31;68055;51.978;5.658;2023-05-02T06:49:08;13.6;50.3
78731;SHT31;68055;51.978;5.658;2023-05-02T06:51:38;13.6;50.3
78731;SHT31;68055;51.978;5.658;2023-05-02T06:54:08;13.6;50.8
78731;SHT31;68055;51.978;5.658;2023-05-02T06:56:37;13.7;49.9
78731;SHT31;68055;51.978;5.658;2023-05-02T06:59:09;13.7;49.9
78731;SHT31;68055;51.978;5.658;2023-05-02T07:01:39;13.8;48.7
78731;SHT31;68055;51.978;5.658;2023-05-02T07:04:08;13.8;48.5
78731;SHT31;68055;51.978;5.658;2023-05-02T07:06:39;13.9;47.9
78731;SHT31;68055;51.978;5.658;2023-05-02T07:09:08;13.9;47.6
78731;SHT31;68055;51.978;5.658;2023-05-02T07:11:38;14.0;47.8
78731;SHT31;68055;51.978;5.658;2023-05-02T07:14:08;14.0;47.8
78731;SHT31;68055;51.978;5.658;2023-05-02T07:16:37;14.0;47.7
78731;SHT31;68055;51.978;5.658;2023-05-02T07:19:07;14.1;47.5
78731;SHT31;68055;51.978;5.658;2023-05-02T07:21:36;14.2;46.7
78731;SHT31;68055;51.978;5.658;2023-05-02T07:24:06;14.2;47.3
78731;SHT31;68055;51.978;5.658;2023-05-02T07:26:36;14.2;46.6
78731;SHT31;68055;51.978;5.658;2023-05-02T07:29:05;14.3;46.0
78731;SHT31;68055;51.978;5.658;2023-05-02T07:31:36;14.3;45.8
78731;SHT31;68055;51.978;5.658;2023-05-02T07:34:05;14.4;45.9
78731;SHT31;68055;51.978;5.658;2023-05-02T07:36:35;14.4;45.9
78731;SHT31;68055;51.978;5.658;2023-05-02T07:39:04;14.4;45.4
78731;SHT31;68055;51.978;5.658;2023-05-02T07:41:34;14.4;45.9
78731;SHT31;68055;51.978;5.658;2023-05-02T07:44:04;14.4;46.0
78731;SHT31;68055;51.978;5.658;2023-05-02T07:46:33;14.4;46.4
78731;SHT31;68055;51.978;5.658;2023-05-02T07:49:03;14.3;46.5
78731;SHT31;68055;51.978;5.658;2023-05-02T07:51:35;14.3;47.0
78731;SHT31;68055;51.978;5.658;2023-05-02T07:54:15;14.3;47.4
78731;SHT31;68055;51.978;5.658;2023-05-02T07:56:45;14.3;47.7
78731;SHT31;68055;51.978;5.658;2023-05-02T07:59:15;14.3;47.6
78731;SHT31;68055;51.978;5.658;2023-05-02T08:01:45;14.3;47.6
78731;SHT31;68055;51.978;5.658;2023-05-02T08:04:14;14.3;48.1
78731;SHT31;68055;51.978;5.658;2023-05-02T08:06:45;14.3;48.5
78731;SHT31;68055;51.978;5.658;2023-05-02T08:09:14;14.3;47.8
78731;SHT31;68055;51.978;5.658;2023-05-02T08:11:44;14.3;47.9
78731;SHT31;68055;51.978;5.658;2023-05-02T08:14:14;14.3;47.7
78731;SHT31;68055;51.978;5.658;2023-05-02T08:16:44;14.3;47.3
78731;SHT31;68055;51.978;5.658;2023-05-02T08:19:14;14.4;47.6
78731;SHT31;68055;51.978;5.658;2023-05-02T08:21:43;14.4;47.3
78731;SHT31;68055;51.978;5.658;2023-05-02T08:24:13;14.5;47.2
78731;SHT31;68055;51.978;5.658;2023-05-02T08:26:42;14.6;46.4
78731;SHT31;68055;51.978;5.658;2023-05-02T08:29:12;14.8;44.5
78731;SHT31;68055;51.978;5.658;2023-05-02T08:31:43;14.9;44.7
78731;SHT31;68055;51.978;5.658;2023-05-02T08:34:13;15.0;44.1
78731;SHT31;68055;51.978;5.658;2023-05-02T08:36:42;15.1;43.7
78731;SHT31;68055;51.978;5.658;2023-05-02T08:39:12;15.2;44.0
78731;SHT31;68055;51.978;5.658;2023-05-02T08:41:43;15.4;42.2
78731;SHT31;68055;51.978;5.658;2023-05-02T08:44:13;15.5;41.6
78731;SHT31;68055;51.978;5.658;2023-05-02T08:46:42;15.6;40.7
78731;SHT31;68055;51.978;5.658;2023-05-02T08:49:14;15.7;41.0
78731;SHT31;68055;51.978;5.658;2023-05-02T08:51:48;15.8;40.4
78731;SHT31;68055;51.978;5.658;2023-05-02T08:54:23;15.9;40.4
78731;SHT31;68055;51.978;5.658;2023-05-02T08:56:54;15.9;39.8
78731;SHT31;68055;51.978;5.658;2023-05-02T08:59:25;16.0;39.8
78731;SHT31;68055;51.978;5.658;2023-05-02T09:01:59;16.0;39.6
78731;SHT31;68055;51.978;5.658;2023-05-02T09:04:31;16.0;38.8
78731;SHT31;68055;51.978;5.658;2023-05-02T09:07:01;16.0;38.9
78731;SHT31;68055;51.978;5.658;2023-05-02T09:09:33;16.0;39.2
78731;SHT31;68055;51.978;5.658;2023-05-02T09:12:04;15.9;39.5
78731;SHT31;68055;51.978;5.658;2023-05-02T09:14:34;15.9;39.9
78731;SHT31;68055;51.978;5.658;2023-05-02T09:17:03;15.9;40.1
78731;SHT31;68055;51.978;5.658;2023-05-02T09:19:33;15.8;39.8
78731;SHT31;68055;51.978;5.658;2023-05-02T09:22:02;15.8;40.1
78731;SHT31;68055;51.978;5.658;2023-05-02T09:24:32;15.8;39.4
78731;SHT31;68055;51.978;5.658;2023-05-02T09:27:04;15.8;39.5
78731;SHT31;68055;51.978;5.658;2023-05-02T09:29:33;15.8;39.0
78731;SHT31;68055;51.978;5.658;2023-05-02T09:32:05;15.8;39.7
78731;SHT31;68055;51.978;5.658;2023-05-02T09:34:35;15.8;40.5
78731;SHT31;68055;51.978;5.658;2023-05-02T09:37:05;15.9;39.5
78731;SHT31;68055;51.978;5.658;2023-05-02T09:39:36;16.0;38.5
78731;SHT31;68055;51.978;5.658;2023-05-02T09:42:06;16.1;37.6
78731;SHT31;68055;51.978;5.658;2023-05-02T09:44:38;16.2;37.5
78731;SHT31;68055;51.978;5.658;2023-05-02T09:47:09;16.3;36.2
78731;SHT31;68055;51.978;5.658;2023-05-02T09:49:44;16.4;36.1
78731;SHT31;68055;51.978;5.658;2023-05-02T09:52:17;16.4;35.1
78731;SHT31;68055;51.978;5.658;2023-05-02T09:54:48;16.5;35.2
78731;SHT31;68055;51.978;5.658;2023-05-02T09:57:19;16.5;35.4
78731;SHT31;68055;51.978;5.658;2023-05-02T09:59:57;16.5;34.6
78731;SHT31;68055;51.978;5.658;2023-05-02T10:02:29;16.6;35.5
78731;SHT31;68055;51.978;5.658;2023-05-02T10:05:02;16.6;35.4
78731;SHT31;68055;51.978;5.658;2023-05-02T10:07:37;16.7;35.4
78731;SHT31;68055;51.978;5.658;2023-05-02T10:10:13;16.8;34.8
78731;SHT31;68055;51.978;5.658;2023-05-02T10:12:47;16.8;34.8
78731;SHT31;68055;51.978;5.658;2023-05-02T10:15:22;16.8;35.2
78731;SHT31;68055;51.978;5.658;2023-05-02T10:18:00;16.9;35.3
78731;SHT31;68055;51.978;5.658;2023-05-02T10:20:34;17.0;36.5
78731;SHT31;68055;51.978;5.658;2023-05-02T10:23:07;17.1;34.9
78731;SHT31;68055;51.978;5.658;2023-05-02T10:25:37;17.2;33.2
78731;SHT31;68055;51.978;5.658;2023-05-02T10:28:09;17.4;34.2
78731;SHT31;68055;51.978;5.658;2023-05-02T10:30:39;17.5;34.3
78731;SHT31;68055;51.978;5.658;2023-05-02T10:33:12;17.6;34.1
78731;SHT31;68055;51.978;5.658;2023-05-02T10:35:44;17.8;34.8
78731;SHT31;68055;51.978;5.658;2023-05-02T10:38:18;18.2;34.3
78731;SHT31;68055;51.978;5.658;2023-05-02T10:40:51;18.7;33.7
78731;SHT31;68055;51.978;5.658;2023-05-02T10:43:25;19.1;31.9
78731;SHT31;68055;51.978;5.658;2023-05-02T10:45:55;19.3;29.9
78731;SHT31;68055;51.978;5.658;2023-05-02T10:48:26;19.4;30.4
78731;SHT31;68055;51.978;5.658;2023-05-02T10:50:57;19.5;29.9
78731;SHT31;68055;51.978;5.658;2023-05-02T10:53:31;19.6;29.4
78731;SHT31;68055;51.978;5.658;2023-05-02T10:56:10;19.6;31.6
78731;SHT31;68055;51.978;5.658;2023-05-02T10:58:43;19.6;30.0
78731;SHT31;68055;51.978;5.658;2023-05-02T11:01:37;19.6;30.3
78731;SHT31;68055;51.978;5.658;2023-05-02T11:04:09;19.6;29.7
78731;SHT31;68055;51.978;5.658;2023-05-02T11:07:17;19.5;31.0
78731;SHT31;68055;51.978;5.658;2023-05-02T11:09:47;19.4;30.5
78731;SHT31;68055;51.978;5.658;2023-05-02T11:12:44;19.4;29.3
78731;SHT31;68055;51.978;5.658;2023-05-02T11:18:08;19.2;29.9
78731;SHT31;68055;51.978;5.658;2023-05-02T11:20:41;19.1;28.9
78731;SHT31;68055;51.978;5.658;2023-05-02T11:23:22;19.0;30.4
78731;SHT31;68055;51.978;5.658;2023-05-02T11:25:54;18.9;31.1
78731;SHT31;68055;51.978;5.658;2023-05-02T11:28:44;18.8;30.4
78731;SHT31;68055;51.978;5.658;2023-05-02T11:36:26;18.6;32.0
78731;SHT31;68055;51.978;5.658;2023-05-02T11:38:56;18.6;31.6
78731;SHT31;68055;51.978;5.658;2023-05-02T11:41:39;18.6;30.9
78731;SHT31;68055;51.978;5.658;2023-05-02T11:44:09;18.5;31.6
78731;SHT31;68055;51.978;5.658;2023-05-02T11:46:39;18.5;31.4
78731;SHT31;68055;51.978;5.658;2023-05-02T11:49:09;18.5;30.9
78731;SHT31;68055;51.978;5.658;2023-05-02T11:51:39;18.5;31.2
78731;SHT31;68055;51.978;5.658;2023-05-02T11:54:19;18.5;31.8
78731;SHT31;68055;51.978;5.658;2023-05-02T11:56:50;18.5;31.4
78731;SHT31;68055;51.978;5.658;2023-05-02T11:59:19;18.5;32.2
78731;SHT31;68055;51.978;5.658;2023-05-02T12:01:49;18.5;32.1
78731;SHT31;68055;51.978;5.658;2023-05-02T12:04:20;18.4;32.0
78731;SHT31;68055;51.978;5.658;2023-05-02T12:06:55;18.4;32.0
78731;SHT31;68055;51.978;5.658;2023-05-02T12:09:25;18.4;31.0
78731;SHT31;68055;51.978;5.658;2023-05-02T12:11:55;18.3;31.2
78731;SHT31;68055;51.978;5.658;2023-05-02T12:14:29;18.3;32.4
78731;SHT31;68055;51.978;5.658;2023-05-02T12:17:00;18.3;32.6
78731;SHT31;68055;51.978;5.658;2023-05-02T12:19:30;18.3;32.1
78731;SHT31;68055;51.978;5.658;2023-05-02T12:21:59;18.3;32.2
78731;SHT31;68055;51.978;5.658;2023-05-02T12:24:29;18.2;32.4
78731;SHT31;68055;51.978;5.658;2023-05-02T12:27:15;18.3;33.2
78731;SHT31;68055;51.978;5.658;2023-05-02T12:29:47;18.3;32.4
78731;SHT31;68055;51.978;5.658;2023-05-02T12:32:30;18.3;33.1
78731;SHT31;68055;51.978;5.658;2023-05-02T12:35:02;18.4;33.3
78731;SHT31;68055;51.978;5.658;2023-05-02T12:37:32;18.5;31.9
78731;SHT31;68055;51.978;5.658;2023-05-02T12:40:01;18.5;31.1
78731;SHT31;68055;51.978;5.658;2023-05-02T12:42:31;18.6;31.1
78731;SHT31;68055;51.978;5.658;2023-05-02T12:45:01;18.5;32.2
78731;SHT31;68055;51.978;5.658;2023-05-02T12:47:44;18.5;31.6
78731;SHT31;68055;51.978;5.658;2023-05-02T12:50:14;18.4;32.3
78731;SHT31;68055;51.978;5.658;2023-05-02T12:52:49;18.4;32.2
78731;SHT31;68055;51.978;5.658;2023-05-02T12:55:25;18.3;32.1
78731;SHT31;68055;51.978;5.658;2023-05-02T12:58:01;18.3;32.5
78731;SHT31;68055;51.978;5.658;2023-05-02T13:00:32;18.2;31.6
78731;SHT31;68055;51.978;5.658;2023-05-02T13:03:02;18.2;32.5
78731;SHT31;68055;51.978;5.658;2023-05-02T13:05:32;18.2;32.6
78731;SHT31;68055;51.978;5.658;2023-05-02T13:08:02;18.2;32.4
78731;SHT31;68055;51.978;5.658;2023-05-02T13:10:34;18.2;31.0
78731;SHT31;68055;51.978;5.658;2023-05-02T13:13:04;18.1;31.9
78731;SHT31;68055;51.978;5.658;2023-05-02T13:15:34;18.1;33.0
78731;SHT31;68055;51.978;5.658;2023-05-02T13:18:03;18.1;31.6
78731;SHT31;68055;51.978;5.658;2023-05-02T13:20:33;18.1;32.0
78731;SHT31;68055;51.978;5.658;2023-05-02T13:23:03;18.0;32.8
78731;SHT31;68055;51.978;5.658;2023-05-02T13:25:32;18.0;32.2
78731;SHT31;68055;51.978;5.658;2023-05-02T13:28:02;18.0;32.7
78731;SHT31;68055;51.978;5.658;2023-05-02T13:30:32;18.0;32.7
78731;SHT31;68055;51.978;5.658;2023-05-02T13:33:02;17.9;32.8
78731;SHT31;68055;51.978;5.658;2023-05-02T13:35:31;17.9;33.0
78731;SHT31;68055;51.978;5.658;2023-05-02T13:38:01;17.9;33.0
78731;SHT31;68055;51.978;5.658;2023-05-02T13:40:31;17.9;32.2
78731;SHT31;68055;51.978;5.658;2023-05-02T13:43:01;17.9;31.8
78731;SHT31;68055;51.978;5.658;2023-05-02T13:45:30;17.8;32.3
78731;SHT31;68055;51.978;5.658;2023-05-02T13:48:00;17.8;33.2
78731;SHT31;68055;51.978;5.658;2023-05-02T13:50:30;17.7;32.5
78731;SHT31;68055;51.978;5.658;2023-05-02T13:53:03;17.7;32.1
78731;SHT31;68055;51.978;5.658;2023-05-02T13:55:33;17.7;32.5
78731;SHT31;68055;51.978;5.658;2023-05-02T13:58:03;17.6;32.4
78731;SHT31;68055;51.978;5.658;2023-05-02T14:00:33;17.6;33.4
78731;SHT31;68055;51.978;5.658;2023-05-02T14:03:03;17.6;33.3
78731;SHT31;68055;51.978;5.658;2023-05-02T14:05:33;17.6;33.3
78731;SHT31;68055;51.978;5.658;2023-05-02T14:08:03;17.6;33.5
78731;SHT31;68055;51.978;5.658;2023-05-02T14:10:34;17.6;33.4
78731;SHT31;68055;51.978;5.658;2023-05-02T14:13:04;17.6;34.3
78731;SHT31;68055;51.978;5.658;2023-05-02T14:15:34;17.6;33.9
78731;SHT31;68055;51.978;5.658;2023-05-02T14:18:04;17.6;32.8
78731;SHT31;68055;51.978;5.658;2023-05-02T14:20:33;17.6;32.6
78731;SHT31;68055;51.978;5.658;2023-05-02T14:23:03;17.6;32.4
78731;SHT31;68055;51.978;5.658;2023-05-02T14:25:33;17.5;32.9
78731;SHT31;68055;51.978;5.658;2023-05-02T14:28:04;17.5;33.0
78731;SHT31;68055;51.978;5.658;2023-05-02T14:30:33;17.5;33.0
78731;SHT31;68055;51.978;5.658;2023-05-02T14:33:03;17.5;32.7
78731;SHT31;68055;51.978;5.658;2023-05-02T14:35:32;17.5;33.1
78731;SHT31;68055;51.978;5.658;2023-05-02T14:38:02;17.5;33.1
78731;SHT31;68055;51.978;5.658;2023-05-02T14:40:32;17.5;32.8
78731;SHT31;68055;51.978;5.658;2023-05-02T14:43:03;17.4;33.3
78731;SHT31;68055;51.978;5.658;2023-05-02T14:45:33;17.4;33.2
78731;SHT31;68055;51.978;5.658;2023-05-02T14:48:03;17.4;32.8
78731;SHT31;68055;51.978;5.658;2023-05-02T14:50:33;17.4;33.0
78731;SHT31;68055;51.978;5.658;2023-05-02T14:53:06;17.3;33.5
78731;SHT31;68055;51.978;5.658;2023-05-02T14:55:37;17.3;33.8
78731;SHT31;68055;51.978;5.658;2023-05-02T14:58:08;17.3;32.8
78731;SHT31;68055;51.978;5.658;2023-05-02T15:00:38;17.2;34.2
78731;SHT31;68055;51.978;5.658;2023-05-02T15:03:08;17.2;34.7
78731;SHT31;68055;51.978;5.658;2023-05-02T15:05:37;17.2;34.0
78731;SHT31;68055;51.978;5.658;2023-05-02T15:08:08;17.2;33.5
78731;SHT31;68055;51.978;5.658;2023-05-02T15:10:38;17.2;33.6
78731;SHT31;68055;51.978;5.658;2023-05-02T15:13:10;17.1;34.1
78731;SHT31;68055;51.978;5.658;2023-05-02T15:15:39;17.0;34.9
78731;SHT31;68055;51.978;5.658;2023-05-02T15:18:09;17.0;34.5
78731;SHT31;68055;51.978;5.658;2023-05-02T15:20:39;16.9;34.0
78731;SHT31;68055;51.978;5.658;2023-05-02T15:23:08;16.9;34.7
78731;SHT31;68055;51.978;5.658;2023-05-02T15:25:38;16.9;35.0
78731;SHT31;68055;51.978;5.658;2023-05-02T15:28:08;16.8;34.8
78731;SHT31;68055;51.978;5.658;2023-05-02T15:30:37;16.8;35.9
78731;SHT31;68055;51.978;5.658;2023-05-02T15:33:07;16.8;35.3
78731;SHT31;68055;51.978;5.658;2023-05-02T15:35:36;16.8;34.9
78731;SHT31;68055;51.978;5.658;2023-05-02T15:38:06;16.7;34.9
78731;SHT31;68055;51.978;5.658;2023-05-02T15:40:38;16.7;35.4
78731;SHT31;68055;51.978;5.658;2023-05-02T15:43:07;16.7;35.4
78731;SHT31;68055;51.978;5.658;2023-05-02T15:45:37;16.7;35.5
78731;SHT31;68055;51.978;5.658;2023-05-02T15:48:06;16.7;34.4
78731;SHT31;68055;51.978;5.658;2023-05-02T15:50:36;16.7;35.4
78731;SHT31;68055;51.978;5.658;2023-05-02T15:53:05;16.7;35.4
78731;SHT31;68055;51.978;5.658;2023-05-02T15:55:35;16.6;35.4
78731;SHT31;68055;51.978;5.658;2023-05-02T15:58:04;16.6;35.1
78731;SHT31;68055;51.978;5.658;2023-05-02T16:00:35;16.6;34.8
78731;SHT31;68055;51.978;5.658;2023-05-02T16:03:05;16.6;35.8
78731;SHT31;68055;51.978;5.658;2023-05-02T16:05:35;16.5;36.4
78731;SHT31;68055;51.978;5.658;2023-05-02T16:08:05;16.5;36.2
78731;SHT31;68055;51.978;5.658;2023-05-02T16:10:35;16.5;35.7
78731;SHT31;68055;51.978;5.658;2023-05-02T16:13:06;16.5;35.0
78731;SHT31;68055;51.978;5.658;2023-05-02T16:15:36;16.5;34.5
78731;SHT31;68055;51.978;5.658;2023-05-02T16:18:05;16.5;35.0
78731;SHT31;68055;51.978;5.658;2023-05-02T16:20:37;16.4;35.4
78731;SHT31;68055;51.978;5.658;2023-05-02T16:23:07;16.4;35.0
78731;SHT31;68055;51.978;5.658;2023-05-02T16:25:36;16.4;35.4
78731;SHT31;68055;51.978;5.658;2023-05-02T16:28:06;16.3;35.0
78731;SHT31;68055;51.978;5.658;2023-05-02T16:30:36;16.3;34.9
78731;SHT31;68055;51.978;5.658;2023-05-02T16:33:08;16.3;35.4
78731;SHT31;68055;51.978;5.658;2023-05-02T16:35:37;16.2;36.1
78731;SHT31;68055;51.978;5.658;2023-05-02T16:38:09;16.2;35.4